sensor_id;sensor_type;location;lat;lon;timestamp;temperature;humidity
5962;DHT22;3007;50.770;0.250;2024-02-16T00:00:59;11.90;99.90
5962;DHT22;3007;50.770;0.250;2024-02-16T00:03:26;12.00;99.90
5962;DHT22;3007;50.770;0.250;2024-02-16T00:05:53;12.00;99.90
5962;DHT22;3007;50.770;0.250;2024-02-16T00:08:20;12.00;99.90
5962;DHT22;3007;50.770;0.250;2024-02-16T00:10:47;12.10;99.90
5962;DHT22;3007;50.770;0.250;2024-02-16T00:13:14;12.10;99.90
5962;DHT22;3007;50.770;0.250;2024-02-16T00:15:41;12.10;99.90
5962;DHT22;3007;50.770;0.250;2024-02-16T00:18:09;12.10;99.90
5962;DHT22;3007;50.770;0.250;2024-02-16T00:20:37;12.10;99.90
5962;DHT22;3007;50.770;0.250;2024-02-16T00:23:04;12.10;99.90
5962;DHT22;3007;50.770;0.250;2024-02-16T00:25:31;12.10;99.90
5962;DHT22;3007;50.770;0.250;2024-02-16T00:27:59;12.10;99.90
5962;DHT22;3007;50.770;0.250;2024-02-16T00:30:26;12.10;99.90
5962;DHT22;3007;50.770;0.250;2024-02-16T00:32:53;12.00;99.90
5962;DHT22;3007;50.770;0.250;2024-02-16T00:35:21;12.00;99.90
5962;DHT22;3007;50.770;0.250;2024-02-16T00:37:48;12.00;99.90
5962;DHT22;3007;50.770;0.250;2024-02-16T00:40:15;12.00;99.90
5962;DHT22;3007;50.770;0.250;2024-02-16T00:42:42;12.00;99.90
5962;DHT22;3007;50.770;0.250;2024-02-16T00:45:09;11.90;99.90
5962;DHT22;3007;50.770;0.250;2024-02-16T00:47:36;11.90;99.90
5962;DHT22;3007;50.770;0.250;2024-02-16T00:50:03;11.90;99.90
5962;DHT22;3007;50.770;0.250;2024-02-16T00:52:35;11.80;99.90
5962;DHT22;3007;50.770;0.250;2024-02-16T00:55:03;11.80;99.90
5962;DHT22;3007;50.770;0.250;2024-02-16T00:57:30;11.70;99.90
5962;DHT22;3007;50.770;0.250;2024-02-16T00:59:58;11.70;99.90
5962;DHT22;3007;50.770;0.250;2024-02-16T01:02:25;11.60;99.90
5962;DHT22;3007;50.770;0.250;2024-02-16T01:04:52;11.60;99.90
5962;DHT22;3007;50.770;0.250;2024-02-16T01:07:20;11.60;99.90
5962;DHT22;3007;50.770;0.250;2024-02-16T01:09:48;11.60;99.90
5962;DHT22;3007;50.770;0.250;2024-02-16T01:12:15;11.50;99.90
5962;DHT22;3007;50.770;0.250;2024-02-16T01:14:42;11.60;99.90
5962;DHT22;3007;50.770;0.250;2024-02-16T01:17:08;11.60;99.90
5962;DHT22;3007;50.770;0.250;2024-02-16T01:19:35;11.60;99.90
5962;DHT22;3007;50.770;0.250;2024-02-16T01:22:02;11.60;99.90
5962;DHT22;3007;50.770;0.250;2024-02-16T01:24:29;11.50;99.90
5962;DHT22;3007;50.770;0.250;2024-02-16T01:26:57;11.50;99.90
5962;DHT22;3007;50.770;0.250;2024-02-16T01:29:24;11.50;99.90
5962;DHT22;3007;50.770;0.250;2024-02-16T01:31:52;11.50;99.90
5962;DHT22;3007;50.770;0.250;2024-02-16T01:34:18;11.50;99.90
5962;DHT22;3007;50.770;0.250;2024-02-16T01:36:45;11.50;99.90
5962;DHT22;3007;50.770;0.250;2024-02-16T01:39:12;11.50;99.90
5962;DHT22;3007;50.770;0.250;2024-02-16T01:41:39;11.50;99.90
5962;DHT22;3007;50.770;0.250;2024-02-16T01:44:07;11.50;99.90
5962;DHT22;3007;50.770;0.250;2024-02-16T01:46:34;11.50;99.90
5962;DHT22;3007;50.770;0.250;2024-02-16T01:49:02;11.50;99.90
5962;DHT22;3007;50.770;0.250;2024-02-16T01:51:29;11.50;99.90
5962;DHT22;3007;50.770;0.250;2024-02-16T01:53:56;11.60;99.90
5962;DHT22;3007;50.770;0.250;2024-02-16T01:56:23;11.60;99.90
5962;DHT22;3007;50.770;0.250;2024-02-16T01:58:52;11.60;99.90
5962;DHT22;3007;50.770;0.250;2024-02-16T02:01:20;11.70;99.90
5962;DHT22;3007;50.770;0.250;2024-02-16T02:03:47;11.60;99.90
5962;DHT22;3007;50.770;0.250;2024-02-16T02:06:14;11.80;99.90
5962;DHT22;3007;50.770;0.250;2024-02-16T02:08:41;11.80;99.90
5962;DHT22;3007;50.770;0.250;2024-02-16T02:11:07;11.90;99.90
5962;DHT22;3007;50.770;0.250;2024-02-16T02:13:34;12.00;99.90
5962;DHT22;3007;50.770;0.250;2024-02-16T02:16:03;12.00;99.90
5962;DHT22;3007;50.770;0.250;2024-02-16T02:18:32;12.00;99.90
5962;DHT22;3007;50.770;0.250;2024-02-16T02:20:59;12.10;99.90
5962;DHT22;3007;50.770;0.250;2024-02-16T02:23:27;12.10;99.90
5962;DHT22;3007;50.770;0.250;2024-02-16T02:25:54;12.10;99.90
5962;DHT22;3007;50.770;0.250;2024-02-16T02:28:21;12.10;99.90
5962;DHT22;3007;50.770;0.250;2024-02-16T02:30:49;12.10;99.90
5962;DHT22;3007;50.770;0.250;2024-02-16T02:33:16;12.10;99.90
5962;DHT22;3007;50.770;0.250;2024-02-16T02:35:43;12.10;99.90
5962;DHT22;3007;50.770;0.250;2024-02-16T02:38:10;12.10;99.90
5962;DHT22;3007;50.770;0.250;2024-02-16T02:40:38;12.10;99.90
5962;DHT22;3007;50.770;0.250;2024-02-16T02:43:05;12.10;99.90
5962;DHT22;3007;50.770;0.250;2024-02-16T02:45:32;12.10;99.90
5962;DHT22;3007;50.770;0.250;2024-02-16T02:47:58;12.10;99.90
5962;DHT22;3007;50.770;0.250;2024-02-16T02:50:25;12.00;99.90
5962;DHT22;3007;50.770;0.250;2024-02-16T02:52:52;12.00;99.90
5962;DHT22;3007;50.770;0.250;2024-02-16T02:55:19;12.00;99.90
5962;DHT22;3007;50.770;0.250;2024-02-16T02:57:47;11.90;99.90
5962;DHT22;3007;50.770;0.250;2024-02-16T03:00:15;11.90;99.90
5962;DHT22;3007;50.770;0.250;2024-02-16T03:02:41;11.80;99.90
5962;DHT22;3007;50.770;0.250;2024-02-16T03:05:09;11.80;99.90
5962;DHT22;3007;50.770;0.250;2024-02-16T03:07:37;11.80;99.90
5962;DHT22;3007;50.770;0.250;2024-02-16T03:10:05;11.80;99.90
5962;DHT22;3007;50.770;0.250;2024-02-16T03:12:34;11.70;99.90
5962;DHT22;3007;50.770;0.250;2024-02-16T03:15:03;11.70;99.90
5962;DHT22;3007;50.770;0.250;2024-02-16T03:17:30;11.70;99.90
5962;DHT22;3007;50.770;0.250;2024-02-16T03:19:57;11.60;99.90
5962;DHT22;3007;50.770;0.250;2024-02-16T03:22:24;11.60;99.90
5962;DHT22;3007;50.770;0.250;2024-02-16T03:24:50;11.50;99.90
5962;DHT22;3007;50.770;0.250;2024-02-16T03:27:17;11.50;99.90
5962;DHT22;3007;50.770;0.250;2024-02-16T03:29:44;11.40;99.90
5962;DHT22;3007;50.770;0.250;2024-02-16T03:32:12;11.40;99.90
5962;DHT22;3007;50.770;0.250;2024-02-16T03:34:39;11.30;99.90
5962;DHT22;3007;50.770;0.250;2024-02-16T03:37:06;11.40;99.90
5962;DHT22;3007;50.770;0.250;2024-02-16T03:39:34;11.30;99.90
5962;DHT22;3007;50.770;0.250;2024-02-16T03:42:00;11.30;99.90
5962;DHT22;3007;50.770;0.250;2024-02-16T03:44:27;11.30;99.90
5962;DHT22;3007;50.770;0.250;2024-02-16T03:46:54;11.30;99.90
5962;DHT22;3007;50.770;0.250;2024-02-16T03:49:22;11.40;99.90
5962;DHT22;3007;50.770;0.250;2024-02-16T03:51:49;11.40;99.90
5962;DHT22;3007;50.770;0.250;2024-02-16T03:54:16;11.40;99.90
5962;DHT22;3007;50.770;0.250;2024-02-16T03:56:42;11.50;99.90
5962;DHT22;3007;50.770;0.250;2024-02-16T03:59:10;11.50;99.90
5962;DHT22;3007;50.770;0.250;2024-02-16T04:01:37;11.50;99.90
5962;DHT22;3007;50.770;0.250;2024-02-16T04:04:04;11.50;99.90
5962;DHT22;3007;50.770;0.250;2024-02-16T04:06:32;11.60;99.90
5962;DHT22;3007;50.770;0.250;2024-02-16T04:08:59;11.60;99.90
5962;DHT22;3007;50.770;0.250;2024-02-16T04:11:26;11.70;99.90
5962;DHT22;3007;50.770;0.250;2024-02-16T04:13:54;11.70;99.90
5962;DHT22;3007;50.770;0.250;2024-02-16T04:16:21;11.70;99.90
5962;DHT22;3007;50.770;0.250;2024-02-16T04:18:50;11.70;99.90
5962;DHT22;3007;50.770;0.250;2024-02-16T04:21:17;11.70;99.90
5962;DHT22;3007;50.770;0.250;2024-02-16T04:23:45;11.80;99.90
5962;DHT22;3007;50.770;0.250;2024-02-16T04:26:12;11.80;99.90
5962;DHT22;3007;50.770;0.250;2024-02-16T04:28:39;11.80;99.90
5962;DHT22;3007;50.770;0.250;2024-02-16T04:31:05;11.80;99.90
5962;DHT22;3007;50.770;0.250;2024-02-16T04:33:35;11.80;99.90
5962;DHT22;3007;50.770;0.250;2024-02-16T04:36:02;11.90;99.90
5962;DHT22;3007;50.770;0.250;2024-02-16T04:38:29;11.90;99.90
5962;DHT22;3007;50.770;0.250;2024-02-16T04:40:57;11.90;99.90
5962;DHT22;3007;50.770;0.250;2024-02-16T04:43:24;12.00;99.90
5962;DHT22;3007;50.770;0.250;2024-02-16T04:45:51;12.00;99.90
5962;DHT22;3007;50.770;0.250;2024-02-16T04:48:19;12.00;99.90
5962;DHT22;3007;50.770;0.250;2024-02-16T04:50:46;12.00;99.90
5962;DHT22;3007;50.770;0.250;2024-02-16T04:53:13;12.00;99.90
5962;DHT22;3007;50.770;0.250;2024-02-16T04:55:40;12.00;99.90
5962;DHT22;3007;50.770;0.250;2024-02-16T04:58:08;12.10;99.90
5962;DHT22;3007;50.770;0.250;2024-02-16T05:00:36;12.10;99.90
5962;DHT22;3007;50.770;0.250;2024-02-16T05:03:03;12.10;99.90
5962;DHT22;3007;50.770;0.250;2024-02-16T05:05:30;12.10;99.90
5962;DHT22;3007;50.770;0.250;2024-02-16T05:07:57;12.10;99.90
5962;DHT22;3007;50.770;0.250;2024-02-16T05:10:24;12.10;99.90
5962;DHT22;3007;50.770;0.250;2024-02-16T05:12:51;12.10;99.90
5962;DHT22;3007;50.770;0.250;2024-02-16T05:15:19;12.10;99.90
5962;DHT22;3007;50.770;0.250;2024-02-16T05:17:47;12.10;99.90
5962;DHT22;3007;50.770;0.250;2024-02-16T05:20:14;12.10;99.90
5962;DHT22;3007;50.770;0.250;2024-02-16T05:22:42;12.10;99.90
5962;DHT22;3007;50.770;0.250;2024-02-16T05:25:11;12.10;99.90
5962;DHT22;3007;50.770;0.250;2024-02-16T05:27:38;12.10;99.90
5962;DHT22;3007;50.770;0.250;2024-02-16T05:30:06;12.10;99.90
5962;DHT22;3007;50.770;0.250;2024-02-16T05:32:36;12.00;99.90
5962;DHT22;3007;50.770;0.250;2024-02-16T05:35:03;12.00;99.90
5962;DHT22;3007;50.770;0.250;2024-02-16T05:37:37;12.00;99.90
5962;DHT22;3007;50.770;0.250;2024-02-16T05:40:07;12.00;99.90
5962;DHT22;3007;50.770;0.250;2024-02-16T05:42:45;12.00;99.90
5962;DHT22;3007;50.770;0.250;2024-02-16T05:45:12;12.00;99.90
5962;DHT22;3007;50.770;0.250;2024-02-16T05:47:41;12.00;99.90
5962;DHT22;3007;50.770;0.250;2024-02-16T05:50:08;12.00;99.90
5962;DHT22;3007;50.770;0.250;2024-02-16T05:52:37;12.00;99.90
5962;DHT22;3007;50.770;0.250;2024-02-16T05:55:05;12.00;99.90
5962;DHT22;3007;50.770;0.250;2024-02-16T05:57:32;12.00;99.90
5962;DHT22;3007;50.770;0.250;2024-02-16T05:59:59;12.00;99.90
5962;DHT22;3007;50.770;0.250;2024-02-16T06:02:25;12.00;99.90
5962;DHT22;3007;50.770;0.250;2024-02-16T06:04:54;12.00;99.90
5962;DHT22;3007;50.770;0.250;2024-02-16T06:07:21;12.00;99.90
5962;DHT22;3007;50.770;0.250;2024-02-16T06:09:48;12.10;99.90
5962;DHT22;3007;50.770;0.250;2024-02-16T06:12:15;12.00;99.90
5962;DHT22;3007;50.770;0.250;2024-02-16T06:14:42;12.00;99.90
5962;DHT22;3007;50.770;0.250;2024-02-16T06:17:09;12.00;99.90
5962;DHT22;3007;50.770;0.250;2024-02-16T06:19:36;12.00;99.90
5962;DHT22;3007;50.770;0.250;2024-02-16T06:22:04;12.00;99.90
5962;DHT22;3007;50.770;0.250;2024-02-16T06:24:31;12.00;99.90
5962;DHT22;3007;50.770;0.250;2024-02-16T06:26:58;12.00;99.90
5962;DHT22;3007;50.770;0.250;2024-02-16T06:29:25;12.00;99.90
5962;DHT22;3007;50.770;0.250;2024-02-16T06:31:52;12.00;99.90
5962;DHT22;3007;50.770;0.250;2024-02-16T06:34:19;12.00;99.90
5962;DHT22;3007;50.770;0.250;2024-02-16T06:36:46;12.00;99.90
5962;DHT22;3007;50.770;0.250;2024-02-16T06:39:15;12.00;99.90
5962;DHT22;3007;50.770;0.250;2024-02-16T06:41:44;12.00;99.90
5962;DHT22;3007;50.770;0.250;2024-02-16T06:44:12;12.00;99.90
5962;DHT22;3007;50.770;0.250;2024-02-16T06:46:39;11.90;99.90
5962;DHT22;3007;50.770;0.250;2024-02-16T06:49:06;12.00;99.90
5962;DHT22;3007;50.770;0.250;2024-02-16T06:51:32;11.90;99.90
5962;DHT22;3007;50.770;0.250;2024-02-16T06:53:59;11.90;99.90
5962;DHT22;3007;50.770;0.250;2024-02-16T06:56:29;11.90;99.90
5962;DHT22;3007;50.770;0.250;2024-02-16T06:58:56;11.80;99.90
5962;DHT22;3007;50.770;0.250;2024-02-16T07:01:23;11.70;99.90
5962;DHT22;3007;50.770;0.250;2024-02-16T07:03:51;11.60;99.90
5962;DHT22;3007;50.770;0.250;2024-02-16T07:06:18;11.60;99.90
5962;DHT22;3007;50.770;0.250;2024-02-16T07:08:45;11.50;99.90
5962;DHT22;3007;50.770;0.250;2024-02-16T07:11:12;11.40;99.90
5962;DHT22;3007;50.770;0.250;2024-02-16T07:13:40;11.40;99.90
5962;DHT22;3007;50.770;0.250;2024-02-16T07:16:08;11.40;99.90
5962;DHT22;3007;50.770;0.250;2024-02-16T07:18:35;11.30;99.90
5962;DHT22;3007;50.770;0.250;2024-02-16T07:21:02;11.30;99.90
5962;DHT22;3007;50.770;0.250;2024-02-16T07:23:29;11.20;99.90
5962;DHT22;3007;50.770;0.250;2024-02-16T07:25:56;11.20;99.90
5962;DHT22;3007;50.770;0.250;2024-02-16T07:28:24;11.20;99.90
5962;DHT22;3007;50.770;0.250;2024-02-16T07:30:53;11.20;99.90
5962;DHT22;3007;50.770;0.250;2024-02-16T07:33:20;11.20;99.90
5962;DHT22;3007;50.770;0.250;2024-02-16T07:35:50;11.20;99.90
5962;DHT22;3007;50.770;0.250;2024-02-16T07:38:16;11.20;99.90
5962;DHT22;3007;50.770;0.250;2024-02-16T07:40:43;11.10;99.90
5962;DHT22;3007;50.770;0.250;2024-02-16T07:43:11;11.10;99.90
5962;DHT22;3007;50.770;0.250;2024-02-16T07:45:39;11.10;99.90
5962;DHT22;3007;50.770;0.250;2024-02-16T07:48:07;11.10;99.90
5962;DHT22;3007;50.770;0.250;2024-02-16T07:50:34;11.10;99.90
5962;DHT22;3007;50.770;0.250;2024-02-16T07:53:01;11.10;99.90
5962;DHT22;3007;50.770;0.250;2024-02-16T07:55:28;11.00;99.90
5962;DHT22;3007;50.770;0.250;2024-02-16T07:57:54;11.00;99.90
5962;DHT22;3007;50.770;0.250;2024-02-16T08:00:21;10.90;99.90
5962;DHT22;3007;50.770;0.250;2024-02-16T08:02:48;10.80;99.90
5962;DHT22;3007;50.770;0.250;2024-02-16T08:05:16;10.90;99.90
5962;DHT22;3007;50.770;0.250;2024-02-16T08:07:49;11.30;99.90
5962;DHT22;3007;50.770;0.250;2024-02-16T08:10:18;11.00;99.90
5962;DHT22;3007;50.770;0.250;2024-02-16T08:12:46;11.10;99.90
5962;DHT22;3007;50.770;0.250;2024-02-16T08:15:13;11.10;99.90
5962;DHT22;3007;50.770;0.250;2024-02-16T08:17:40;11.20;99.90
5962;DHT22;3007;50.770;0.250;2024-02-16T08:20:08;11.20;99.90
5962;DHT22;3007;50.770;0.250;2024-02-16T08:22:37;11.30;99.90
5962;DHT22;3007;50.770;0.250;2024-02-16T08:25:05;11.30;99.90
5962;DHT22;3007;50.770;0.250;2024-02-16T08:27:32;11.10;99.90
5962;DHT22;3007;50.770;0.250;2024-02-16T08:29:59;11.30;99.90
5962;DHT22;3007;50.770;0.250;2024-02-16T08:32:27;11.30;99.90
5962;DHT22;3007;50.770;0.250;2024-02-16T08:34:56;11.20;99.90
5962;DHT22;3007;50.770;0.250;2024-02-16T08:37:24;11.20;99.90
5962;DHT22;3007;50.770;0.250;2024-02-16T08:39:52;11.10;99.90
5962;DHT22;3007;50.770;0.250;2024-02-16T08:42:19;11.10;99.90
5962;DHT22;3007;50.770;0.250;2024-02-16T08:44:50;11.00;99.90
5962;DHT22;3007;50.770;0.250;2024-02-16T08:47:17;11.00;99.90
5962;DHT22;3007;50.770;0.250;2024-02-16T08:49:44;10.90;99.90
5962;DHT22;3007;50.770;0.250;2024-02-16T08:52:11;10.90;99.90
5962;DHT22;3007;50.770;0.250;2024-02-16T08:54:37;10.90;99.90
5962;DHT22;3007;50.770;0.250;2024-02-16T08:57:06;10.90;99.90
5962;DHT22;3007;50.770;0.250;2024-02-16T08:59:38;10.90;99.90
5962;DHT22;3007;50.770;0.250;2024-02-16T09:02:06;11.00;99.90
5962;DHT22;3007;50.770;0.250;2024-02-16T09:04:33;11.10;99.90
5962;DHT22;3007;50.770;0.250;2024-02-16T09:06:59;11.20;99.90
5962;DHT22;3007;50.770;0.250;2024-02-16T09:09:26;11.30;99.90
5962;DHT22;3007;50.770;0.250;2024-02-16T09:11:53;11.30;99.90
5962;DHT22;3007;50.770;0.250;2024-02-16T09:14:22;11.40;99.90
5962;DHT22;3007;50.770;0.250;2024-02-16T09:16:49;11.40;99.90
5962;DHT22;3007;50.770;0.250;2024-02-16T09:19:17;11.40;99.90
5962;DHT22;3007;50.770;0.250;2024-02-16T09:21:45;11.40;99.90
5962;DHT22;3007;50.770;0.250;2024-02-16T09:24:12;11.40;99.90
5962;DHT22;3007;50.770;0.250;2024-02-16T09:26:43;11.40;99.90
5962;DHT22;3007;50.770;0.250;2024-02-16T09:29:11;11.30;99.90
5962;DHT22;3007;50.770;0.250;2024-02-16T09:31:39;11.30;99.90
5962;DHT22;3007;50.770;0.250;2024-02-16T09:34:07;11.30;99.90
5962;DHT22;3007;50.770;0.250;2024-02-16T09:36:33;11.20;99.90
5962;DHT22;3007;50.770;0.250;2024-02-16T09:39:01;11.20;99.90
5962;DHT22;3007;50.770;0.250;2024-02-16T09:41:28;11.20;99.90
5962;DHT22;3007;50.770;0.250;2024-02-16T09:43:55;11.20;99.90
5962;DHT22;3007;50.770;0.250;2024-02-16T09:46:23;11.20;99.90
5962;DHT22;3007;50.770;0.250;2024-02-16T09:48:53;11.20;99.90
5962;DHT22;3007;50.770;0.250;2024-02-16T09:51:21;11.20;99.90
5962;DHT22;3007;50.770;0.250;2024-02-16T09:53:50;11.20;99.90
5962;DHT22;3007;50.770;0.250;2024-02-16T09:56:19;11.20;99.90
5962;DHT22;3007;50.770;0.250;2024-02-16T09:58:46;11.20;99.90
5962;DHT22;3007;50.770;0.250;2024-02-16T10:01:18;11.30;99.90
5962;DHT22;3007;50.770;0.250;2024-02-16T10:03:46;11.20;99.90
5962;DHT22;3007;50.770;0.250;2024-02-16T10:06:15;11.20;99.90
5962;DHT22;3007;50.770;0.250;2024-02-16T10:08:49;11.30;99.90
5962;DHT22;3007;50.770;0.250;2024-02-16T10:11:16;11.20;99.90
5962;DHT22;3007;50.770;0.250;2024-02-16T10:13:53;11.20;99.90
5962;DHT22;3007;50.770;0.250;2024-02-16T10:16:20;11.30;99.90
5962;DHT22;3007;50.770;0.250;2024-02-16T10:18:47;11.20;99.90
5962;DHT22;3007;50.770;0.250;2024-02-16T10:21:24;11.20;99.90
5962;DHT22;3007;50.770;0.250;2024-02-16T10:23:56;11.20;99.90
5962;DHT22;3007;50.770;0.250;2024-02-16T10:26:24;11.20;99.90
5962;DHT22;3007;50.770;0.250;2024-02-16T10:28:54;11.20;99.90
5962;DHT22;3007;50.770;0.250;2024-02-16T10:31:23;11.20;99.90
5962;DHT22;3007;50.770;0.250;2024-02-16T10:33:56;11.20;99.90
5962;DHT22;3007;50.770;0.250;2024-02-16T10:36:26;11.20;99.90
5962;DHT22;3007;50.770;0.250;2024-02-16T10:38:54;11.30;99.90
5962;DHT22;3007;50.770;0.250;2024-02-16T10:41:25;11.30;99.90
5962;DHT22;3007;50.770;0.250;2024-02-16T10:43:57;11.30;99.90
5962;DHT22;3007;50.770;0.250;2024-02-16T10:46:23;11.30;99.90
5962;DHT22;3007;50.770;0.250;2024-02-16T10:48:51;11.30;99.90
5962;DHT22;3007;50.770;0.250;2024-02-16T10:51:21;11.40;99.90
5962;DHT22;3007;50.770;0.250;2024-02-16T10:53:52;11.40;99.90
5962;DHT22;3007;50.770;0.250;2024-02-16T10:56:27;11.40;99.90
5962;DHT22;3007;50.770;0.250;2024-02-16T10:58:54;11.40;99.90
5962;DHT22;3007;50.770;0.250;2024-02-16T11:01:22;11.50;99.90
5962;DHT22;3007;50.770;0.250;2024-02-16T11:03:49;11.60;99.90
5962;DHT22;3007;50.770;0.250;2024-02-16T11:06:26;11.70;99.90
5962;DHT22;3007;50.770;0.250;2024-02-16T11:09:00;11.70;99.90
5962;DHT22;3007;50.770;0.250;2024-02-16T11:11:27;11.80;99.90
5962;DHT22;3007;50.770;0.250;2024-02-16T11:13:55;11.90;99.90
5962;DHT22;3007;50.770;0.250;2024-02-16T11:16:22;11.90;99.90
5962;DHT22;3007;50.770;0.250;2024-02-16T11:18:51;11.90;99.90
5962;DHT22;3007;50.770;0.250;2024-02-16T11:21:18;12.00;99.90
5962;DHT22;3007;50.770;0.250;2024-02-16T11:23:44;12.00;99.90
5962;DHT22;3007;50.770;0.250;2024-02-16T11:26:13;12.10;99.90
5962;DHT22;3007;50.770;0.250;2024-02-16T11:28:41;12.10;99.90
5962;DHT22;3007;50.770;0.250;2024-02-16T11:31:09;12.30;99.90
5962;DHT22;3007;50.770;0.250;2024-02-16T11:33:36;12.50;99.90
5962;DHT22;3007;50.770;0.250;2024-02-16T11:36:09;12.70;99.90
5962;DHT22;3007;50.770;0.250;2024-02-16T11:38:37;12.80;99.90
5962;DHT22;3007;50.770;0.250;2024-02-16T11:41:06;12.90;99.90
5962;DHT22;3007;50.770;0.250;2024-02-16T11:43:34;12.90;99.90
5962;DHT22;3007;50.770;0.250;2024-02-16T11:46:11;12.90;99.90
5962;DHT22;3007;50.770;0.250;2024-02-16T11:48:38;12.80;99.90
5962;DHT22;3007;50.770;0.250;2024-02-16T11:51:05;12.80;99.90
5962;DHT22;3007;50.770;0.250;2024-02-16T11:53:32;12.70;99.90
5962;DHT22;3007;50.770;0.250;2024-02-16T11:55:59;12.80;99.90
5962;DHT22;3007;50.770;0.250;2024-02-16T11:58:26;12.90;99.90
5962;DHT22;3007;50.770;0.250;2024-02-16T12:00:55;12.90;99.90
5962;DHT22;3007;50.770;0.250;2024-02-16T12:03:25;12.90;99.90
5962;DHT22;3007;50.770;0.250;2024-02-16T12:05:54;13.00;99.90
5962;DHT22;3007;50.770;0.250;2024-02-16T12:08:21;13.00;99.90
5962;DHT22;3007;50.770;0.250;2024-02-16T12:10:49;13.10;99.90
5962;DHT22;3007;50.770;0.250;2024-02-16T12:13:16;13.20;99.90
5962;DHT22;3007;50.770;0.250;2024-02-16T12:15:44;13.10;99.90
5962;DHT22;3007;50.770;0.250;2024-02-16T12:18:20;13.20;99.90
5962;DHT22;3007;50.770;0.250;2024-02-16T12:20:57;13.20;99.90
5962;DHT22;3007;50.770;0.250;2024-02-16T12:23:24;13.20;99.90
5962;DHT22;3007;50.770;0.250;2024-02-16T12:25:51;13.10;99.90
5962;DHT22;3007;50.770;0.250;2024-02-16T12:28:18;13.10;99.90
5962;DHT22;3007;50.770;0.250;2024-02-16T12:30:45;13.00;99.90
5962;DHT22;3007;50.770;0.250;2024-02-16T12:33:12;12.90;99.90
5962;DHT22;3007;50.770;0.250;2024-02-16T12:35:41;12.80;99.90
5962;DHT22;3007;50.770;0.250;2024-02-16T12:38:07;12.80;99.90
5962;DHT22;3007;50.770;0.250;2024-02-16T12:40:34;12.80;99.90
5962;DHT22;3007;50.770;0.250;2024-02-16T12:43:01;12.70;99.90
5962;DHT22;3007;50.770;0.250;2024-02-16T12:45:28;12.60;99.90
5962;DHT22;3007;50.770;0.250;2024-02-16T12:47:55;12.50;99.90
5962;DHT22;3007;50.770;0.250;2024-02-16T12:50:22;12.40;99.90
5962;DHT22;3007;50.770;0.250;2024-02-16T12:52:51;12.40;99.90
5962;DHT22;3007;50.770;0.250;2024-02-16T12:55:17;12.40;99.90
5962;DHT22;3007;50.770;0.250;2024-02-16T12:57:44;12.50;99.90
5962;DHT22;3007;50.770;0.250;2024-02-16T13:00:12;12.40;99.90
5962;DHT22;3007;50.770;0.250;2024-02-16T13:02:40;12.50;99.90
5962;DHT22;3007;50.770;0.250;2024-02-16T13:05:07;12.50;99.90
5962;DHT22;3007;50.770;0.250;2024-02-16T13:07:33;12.50;99.90
5962;DHT22;3007;50.770;0.250;2024-02-16T13:10:02;12.60;99.90
5962;DHT22;3007;50.770;0.250;2024-02-16T13:12:29;12.60;99.90
5962;DHT22;3007;50.770;0.250;2024-02-16T13:14:57;12.60;99.90
5962;DHT22;3007;50.770;0.250;2024-02-16T13:17:24;12.60;99.90
5962;DHT22;3007;50.770;0.250;2024-02-16T13:19:51;12.60;99.90
5962;DHT22;3007;50.770;0.250;2024-02-16T13:22:18;12.60;99.90
5962;DHT22;3007;50.770;0.250;2024-02-16T13:24:45;12.50;99.90
5962;DHT22;3007;50.770;0.250;2024-02-16T13:27:13;12.40;99.90
5962;DHT22;3007;50.770;0.250;2024-02-16T13:29:40;12.40;99.90
5962;DHT22;3007;50.770;0.250;2024-02-16T13:32:07;12.40;99.90
5962;DHT22;3007;50.770;0.250;2024-02-16T13:34:34;12.50;99.90
5962;DHT22;3007;50.770;0.250;2024-02-16T13:37:01;12.30;99.90
5962;DHT22;3007;50.770;0.250;2024-02-16T13:39:27;12.70;99.90
5962;DHT22;3007;50.770;0.250;2024-02-16T13:41:54;12.60;99.90
5962;DHT22;3007;50.770;0.250;2024-02-16T13:44:24;12.60;99.90
5962;DHT22;3007;50.770;0.250;2024-02-16T13:46:51;12.50;99.90
5962;DHT22;3007;50.770;0.250;2024-02-16T13:49:17;12.30;99.90
5962;DHT22;3007;50.770;0.250;2024-02-16T13:51:44;12.30;99.90
5962;DHT22;3007;50.770;0.250;2024-02-16T13:54:12;12.30;99.90
5962;DHT22;3007;50.770;0.250;2024-02-16T13:56:39;12.20;99.90
5962;DHT22;3007;50.770;0.250;2024-02-16T13:59:06;12.10;99.90
5962;DHT22;3007;50.770;0.250;2024-02-16T14:01:35;12.10;99.90
5962;DHT22;3007;50.770;0.250;2024-02-16T14:04:03;12.00;99.90
5962;DHT22;3007;50.770;0.250;2024-02-16T14:06:29;12.00;99.90
5962;DHT22;3007;50.770;0.250;2024-02-16T14:08:57;12.10;99.90
5962;DHT22;3007;50.770;0.250;2024-02-16T14:11:24;12.00;99.90
5962;DHT22;3007;50.770;0.250;2024-02-16T14:13:50;12.10;99.90
5962;DHT22;3007;50.770;0.250;2024-02-16T14:16:17;12.10;99.90
5962;DHT22;3007;50.770;0.250;2024-02-16T14:18:46;12.10;99.90
5962;DHT22;3007;50.770;0.250;2024-02-16T14:21:13;11.90;99.90
5962;DHT22;3007;50.770;0.250;2024-02-16T14:23:40;12.20;99.90
5962;DHT22;3007;50.770;0.250;2024-02-16T14:26:09;12.20;99.90
5962;DHT22;3007;50.770;0.250;2024-02-16T14:28:36;12.30;99.90
5962;DHT22;3007;50.770;0.250;2024-02-16T14:31:03;12.30;99.90
5962;DHT22;3007;50.770;0.250;2024-02-16T14:33:32;12.40;99.90
5962;DHT22;3007;50.770;0.250;2024-02-16T14:36:01;12.50;99.90
5962;DHT22;3007;50.770;0.250;2024-02-16T14:38:28;12.60;99.90
5962;DHT22;3007;50.770;0.250;2024-02-16T14:40:55;12.60;99.90
5962;DHT22;3007;50.770;0.250;2024-02-16T14:43:22;12.60;99.90
5962;DHT22;3007;50.770;0.250;2024-02-16T14:45:49;12.60;99.90
5962;DHT22;3007;50.770;0.250;2024-02-16T14:48:16;12.60;99.90
5962;DHT22;3007;50.770;0.250;2024-02-16T14:50:42;12.70;99.90
5962;DHT22;3007;50.770;0.250;2024-02-16T14:53:11;12.70;99.90
5962;DHT22;3007;50.770;0.250;2024-02-16T14:55:37;12.70;99.90
5962;DHT22;3007;50.770;0.250;2024-02-16T14:58:04;12.70;99.90
5962;DHT22;3007;50.770;0.250;2024-02-16T15:00:32;12.80;99.90
5962;DHT22;3007;50.770;0.250;2024-02-16T15:03:01;12.70;99.90
5962;DHT22;3007;50.770;0.250;2024-02-16T15:05:28;12.70;99.90
5962;DHT22;3007;50.770;0.250;2024-02-16T15:07:55;12.70;99.90
5962;DHT22;3007;50.770;0.250;2024-02-16T15:10:23;12.60;99.90
5962;DHT22;3007;50.770;0.250;2024-02-16T15:12:50;12.70;99.90
5962;DHT22;3007;50.770;0.250;2024-02-16T15:15:17;12.70;99.90
5962;DHT22;3007;50.770;0.250;2024-02-16T15:17:44;12.70;99.90
5962;DHT22;3007;50.770;0.250;2024-02-16T15:20:11;12.60;99.90
5962;DHT22;3007;50.770;0.250;2024-02-16T15:22:38;12.50;99.90
5962;DHT22;3007;50.770;0.250;2024-02-16T15:25:06;12.50;99.90
5962;DHT22;3007;50.770;0.250;2024-02-16T15:27:36;12.40;99.90
5962;DHT22;3007;50.770;0.250;2024-02-16T15:30:03;12.30;99.90
5962;DHT22;3007;50.770;0.250;2024-02-16T15:32:30;12.30;99.90
5962;DHT22;3007;50.770;0.250;2024-02-16T15:34:57;12.20;99.90
5962;DHT22;3007;50.770;0.250;2024-02-16T15:37:24;12.10;99.90
5962;DHT22;3007;50.770;0.250;2024-02-16T15:39:51;12.10;99.90
5962;DHT22;3007;50.770;0.250;2024-02-16T15:42:26;12.00;99.90
5962;DHT22;3007;50.770;0.250;2024-02-16T15:44:56;11.90;99.90
5962;DHT22;3007;50.770;0.250;2024-02-16T15:47:23;11.80;99.90
5962;DHT22;3007;50.770;0.250;2024-02-16T15:49:49;11.80;99.90
5962;DHT22;3007;50.770;0.250;2024-02-16T15:52:16;11.70;99.90
5962;DHT22;3007;50.770;0.250;2024-02-16T15:54:43;11.70;99.90
5962;DHT22;3007;50.770;0.250;2024-02-16T15:57:10;11.70;99.90
5962;DHT22;3007;50.770;0.250;2024-02-16T15:59:37;11.70;99.90
5962;DHT22;3007;50.770;0.250;2024-02-16T16:02:05;11.80;99.90
5962;DHT22;3007;50.770;0.250;2024-02-16T16:04:32;11.80;99.90